sensor_id;sensor_type;location;lat;lon;timestamp;pressure;altitude;pressure_sealevel;temperature;humidity
44531;BME280;30240;47.418;0.700;2023-05-03T00:02:13;101044.7021484375;;;12.66;78.4
44531;BME280;30240;47.418;0.700;2023-05-03T00:04:38;101047.32666015625;;;12.73;78.27
44531;BME280;30240;47.418;0.700;2023-05-03T00:07:03;101050.2685546875;;;12.73;78.19
44531;BME280;30240;47.418;0.700;2023-05-03T00:09:29;101054.70581054688;;;12.68;78.24
44531;BME280;30240;47.418;0.700;2023-05-03T00:11:54;101057.67822265625;;;12.6;78.37
44531;BME280;30240;47.418;0.700;2023-05-03T00:14:19;101057.67822265625;;;12.6;78.37
44531;BME280;30240;47.418;0.700;2023-05-03T00:16:43;101070.6787109375;;;12.58;78.39
44531;BME280;30240;47.418;0.700;2023-05-03T00:19:09;101077.40478515625;;;12.44;78.81
44531;BME280;30240;47.418;0.700;2023-05-03T00:21:33;101079.16259765625;;;12.37;78.95
44531;BME280;30240;47.418;0.700;2023-05-03T00:23:58;101083.984375;;;12.25;79.32
44531;BME280;30240;47.418;0.700;2023-05-03T00:26:24;101083.984375;;;12.25;79.32
44531;BME280;30240;47.418;0.700;2023-05-03T00:28:48;101085.65673828125;;;12.0;79.75
44531;BME280;30240;47.418;0.700;2023-05-03T00:31:13;101093.98193359375;;;12.06;79.91
44531;BME280;30240;47.418;0.700;2023-05-03T00:33:38;101098.10180664062;;;12.06;79.72
44531;BME280;30240;47.418;0.700;2023-05-03T00:36:07;101104.052734375;;;11.81;80.36
44531;BME280;30240;47.418;0.700;2023-05-03T00:38:28;101104.052734375;;;11.81;80.36
44531;BME280;30240;47.418;0.700;2023-05-03T00:40:53;101099.40795898438;;;11.66;80.61
44531;BME280;30240;47.418;0.700;2023-05-03T00:43:18;101101.28173828125;;;11.72;80.8
44531;BME280;30240;47.418;0.700;2023-05-03T00:45:43;101095.703125;;;11.64;80.92
44531;BME280;30240;47.418;0.700;2023-05-03T00:48:08;101092.63916015625;;;11.54;81.03
44531;BME280;30240;47.418;0.700;2023-05-03T00:50:35;101092.63916015625;;;11.54;81.03
44531;BME280;30240;47.418;0.700;2023-05-03T00:52:59;101086.89575195312;;;11.44;81.12
44531;BME280;30240;47.418;0.700;2023-05-03T00:55:25;101079.99877929688;;;11.52;81.26
44531;BME280;30240;47.418;0.700;2023-05-03T00:57:48;101078.21655273438;;;11.52;81.11
44531;BME280;30240;47.418;0.700;2023-05-03T01:00:14;101066.59545898438;;;11.38;81.31
44531;BME280;30240;47.418;0.700;2023-05-03T01:02:39;101066.59545898438;;;11.38;81.31
44531;BME280;30240;47.418;0.700;2023-05-03T01:05:04;101060.63842773438;;;11.34;81.54
44531;BME280;30240;47.418;0.700;2023-05-03T01:07:39;101064.84375;;;11.37;81.47
44531;BME280;30240;47.418;0.700;2023-05-03T01:09:59;101055.029296875;;;11.28;81.59
44531;BME280;30240;47.418;0.700;2023-05-03T01:12:25;101054.99877929688;;;11.4;81.34
44531;BME280;30240;47.418;0.700;2023-05-03T01:12:29;101054.99877929688;;;11.4;81.34
44531;BME280;30240;47.418;0.700;2023-05-03T01:14:48;101054.99877929688;;;11.4;81.34
44531;BME280;30240;47.418;0.700;2023-05-03T01:17:11;101042.09594726562;;;11.38;81.27
44531;BME280;30240;47.418;0.700;2023-05-03T01:19:36;101040.07568359375;;;11.34;81.36
44531;BME280;30240;47.418;0.700;2023-05-03T01:22:05;101030.810546875;;;11.19;81.67
44531;BME280;30240;47.418;0.700;2023-05-03T01:22:09;101030.810546875;;;11.19;81.67
44531;BME280;30240;47.418;0.700;2023-05-03T01:24:25;101018.212890625;;;11.05;81.82
44531;BME280;30240;47.418;0.700;2023-05-03T01:26:49;101018.212890625;;;11.05;81.82
44531;BME280;30240;47.418;0.700;2023-05-03T01:29:13;101016.65649414062;;;11.05;81.88
44531;BME280;30240;47.418;0.700;2023-05-03T01:31:43;101014.95361328125;;;11.03;81.77
44531;BME280;30240;47.418;0.700;2023-05-03T01:34:09;101013.671875;;;10.98;81.75
44531;BME280;30240;47.418;0.700;2023-05-03T01:36:30;101005.15747070312;;;10.81;82.0
44531;BME280;30240;47.418;0.700;2023-05-03T01:38:53;101005.15747070312;;;10.81;82.0
44531;BME280;30240;47.418;0.700;2023-05-03T01:41:20;101002.31323242188;;;10.81;81.94
44531;BME280;30240;47.418;0.700;2023-05-03T01:43:44;101001.1474609375;;;10.79;82.04
44531;BME280;30240;47.418;0.700;2023-05-03T01:46:08;101005.74340820312;;;10.69;82.18
44531;BME280;30240;47.418;0.700;2023-05-03T01:48:33;101005.97534179688;;;10.69;82.25
44531;BME280;30240;47.418;0.700;2023-05-03T01:50:58;100999.89013671875;;;10.67;82.2
44531;BME280;30240;47.418;0.700;2023-05-03T01:53:23;100999.89013671875;;;10.67;82.2
44531;BME280;30240;47.418;0.700;2023-05-03T01:55:49;100991.10107421875;;;10.64;82.25
44531;BME280;30240;47.418;0.700;2023-05-03T01:58:13;100984.18579101562;;;10.6;82.26
44531;BME280;30240;47.418;0.700;2023-05-03T02:00:38;100981.92138671875;;;10.5;82.15
44531;BME280;30240;47.418;0.700;2023-05-03T02:03:04;100978.96118164062;;;10.51;82.12
44531;BME280;30240;47.418;0.700;2023-05-03T02:05:28;100978.96118164062;;;10.51;82.12
44531;BME280;30240;47.418;0.700;2023-05-03T02:07:53;100974.0234375;;;10.43;82.04
44531;BME280;30240;47.418;0.700;2023-05-03T02:10:19;100977.76489257812;;;10.41;81.96
44531;BME280;30240;47.418;0.700;2023-05-03T02:12:44;100973.93798828125;;;10.34;81.96
44531;BME280;30240;47.418;0.700;2023-05-03T02:15:09;100978.3203125;;;10.37;81.81
44531;BME280;30240;47.418;0.700;2023-05-03T02:17:33;100978.3203125;;;10.37;81.81
44531;BME280;30240;47.418;0.700;2023-05-03T02:19:59;100973.6572265625;;;10.37;81.76
44531;BME280;30240;47.418;0.700;2023-05-03T02:22:23;100974.3408203125;;;10.26;81.85
44531;BME280;30240;47.418;0.700;2023-05-03T02:24:48;100967.46215820312;;;10.29;81.97
44531;BME280;30240;47.418;0.700;2023-05-03T02:27:13;100965.68603515625;;;10.28;81.91
44531;BME280;30240;47.418;0.700;2023-05-03T02:29:39;100965.68603515625;;;10.28;81.91
44531;BME280;30240;47.418;0.700;2023-05-03T02:32:04;100972.10693359375;;;10.28;82.02
44531;BME280;30240;47.418;0.700;2023-05-03T02:34:28;100972.81494140625;;;10.23;82.08
44531;BME280;30240;47.418;0.700;2023-05-03T02:36:54;100972.79663085938;;;10.09;82.27
44531;BME280;30240;47.418;0.700;2023-05-03T02:39:19;100974.81079101562;;;10.15;82.24
44531;BME280;30240;47.418;0.700;2023-05-03T02:41:44;100974.81079101562;;;10.15;82.24
44531;BME280;30240;47.418;0.700;2023-05-03T02:44:08;100983.06274414062;;;10.13;82.38
44531;BME280;30240;47.418;0.700;2023-05-03T02:46:33;100979.76684570312;;;10.06;82.35
44531;BME280;30240;47.418;0.700;2023-05-03T02:48:58;100981.60400390625;;;10.05;82.36
44531;BME280;30240;47.418;0.700;2023-05-03T02:51:24;100982.39135742188;;;9.98;82.52
44531;BME280;30240;47.418;0.700;2023-05-03T02:53:48;100982.39135742188;;;9.98;82.52
44531;BME280;30240;47.418;0.700;2023-05-03T02:56:13;100981.3232421875;;;9.92;82.79
44531;BME280;30240;47.418;0.700;2023-05-03T02:58:38;100978.0029296875;;;9.9;82.83
44531;BME280;30240;47.418;0.700;2023-05-03T03:01:04;100977.392578125;;;9.87;82.89
44531;BME280;30240;47.418;0.700;2023-05-03T03:03:29;100976.513671875;;;9.78;83.05
44531;BME280;30240;47.418;0.700;2023-05-03T03:05:53;100976.513671875;;;9.78;83.05
44531;BME280;30240;47.418;0.700;2023-05-03T03:08:18;100973.65112304688;;;9.73;83.33
44531;BME280;30240;47.418;0.700;2023-05-03T03:10:43;100967.73681640625;;;9.69;83.42
44531;BME280;30240;47.418;0.700;2023-05-03T03:13:08;100962.24975585938;;;9.61;83.39
44531;BME280;30240;47.418;0.700;2023-05-03T03:15:33;100957.61108398438;;;9.6;83.45
44531;BME280;30240;47.418;0.700;2023-05-03T03:17:58;100956.31103515625;;;9.56;83.6
44531;BME280;30240;47.418;0.700;2023-05-03T03:20:23;100956.31103515625;;;9.56;83.6
44531;BME280;30240;47.418;0.700;2023-05-03T03:22:48;100952.92358398438;;;9.57;83.6
44531;BME280;30240;47.418;0.700;2023-05-03T03:25:14;100949.7314453125;;;9.49;83.55
44531;BME280;30240;47.418;0.700;2023-05-03T03:27:39;100949.96948242188;;;9.46;83.73
44531;BME280;30240;47.418;0.700;2023-05-03T03:30:04;100943.5791015625;;;9.43;83.56
44531;BME280;30240;47.418;0.700;2023-05-03T03:32:29;100943.5791015625;;;9.43;83.56
44531;BME280;30240;47.418;0.700;2023-05-03T03:34:53;100938.29956054688;;;9.47;83.62
44531;BME280;30240;47.418;0.700;2023-05-03T03:37:18;100942.75512695312;;;9.43;83.77
44531;BME280;30240;47.418;0.700;2023-05-03T03:39:43;100938.19580078125;;;9.46;83.63
44531;BME280;30240;47.418;0.700;2023-05-03T03:42:10;100938.81225585938;;;9.38;83.75
44531;BME280;30240;47.418;0.700;2023-05-03T03:44:33;100938.81225585938;;;9.38;83.75
44531;BME280;30240;47.418;0.700;2023-05-03T03:46:58;100935.65673828125;;;9.4;83.8
44531;BME280;30240;47.418;0.700;2023-05-03T03:49:23;100939.111328125;;;9.29;83.94
44531;BME280;30240;47.418;0.700;2023-05-03T03:51:48;100939.1357421875;;;9.35;84.0
44531;BME280;30240;47.418;0.700;2023-05-03T03:54:13;100932.56225585938;;;9.26;84.06
44531;BME280;30240;47.418;0.700;2023-05-03T03:56:38;100932.56225585938;;;9.26;84.06
44531;BME280;30240;47.418;0.700;2023-05-03T03:59:04;100928.2470703125;;;9.25;84.08
44531;BME280;30240;47.418;0.700;2023-05-03T04:01:28;100922.6318359375;;;9.21;84.06
44531;BME280;30240;47.418;0.700;2023-05-03T04:03:53;100918.505859375;;;9.21;84.02
44531;BME280;30240;47.418;0.700;2023-05-03T04:06:18;100917.43774414062;;;9.21;84.05
44531;BME280;30240;47.418;0.700;2023-05-03T04:08:43;100917.43774414062;;;9.21;84.05
44531;BME280;30240;47.418;0.700;2023-05-03T04:11:09;100917.20581054688;;;9.14;83.97
44531;BME280;30240;47.418;0.700;2023-05-03T04:13:33;100912.73193359375;;;9.14;84.09
44531;BME280;30240;47.418;0.700;2023-05-03T04:15:58;100909.765625;;;9.08;84.2
44531;BME280;30240;47.418;0.700;2023-05-03T04:18:23;100912.158203125;;;9.1;84.19
44531;BME280;30240;47.418;0.700;2023-05-03T04:20:48;100912.158203125;;;9.1;84.19
44531;BME280;30240;47.418;0.700;2023-05-03T04:23:13;100914.33715820312;;;9.0;84.24
44531;BME280;30240;47.418;0.700;2023-05-03T04:25:38;100918.43872070312;;;9.0;84.21
44531;BME280;30240;47.418;0.700;2023-05-03T04:28:03;100913.20190429688;;;9.01;84.05
44531;BME280;30240;47.418;0.700;2023-05-03T04:30:28;100914.61181640625;;;9.08;83.85
44531;BME280;30240;47.418;0.700;2023-05-03T04:32:53;100914.61181640625;;;9.08;83.85
44531;BME280;30240;47.418;0.700;2023-05-03T04:35:18;100903.466796875;;;9.04;83.97
44531;BME280;30240;47.418;0.700;2023-05-03T04:37:43;100917.73681640625;;;9.08;83.81
44531;BME280;30240;47.418;0.700;2023-05-03T04:40:09;100911.9384765625;;;8.94;83.78
44531;BME280;30240;47.418;0.700;2023-05-03T04:42:34;100912.3291015625;;;9.03;83.66
44531;BME280;30240;47.418;0.700;2023-05-03T04:44:59;100912.3291015625;;;9.03;83.66
44531;BME280;30240;47.418;0.700;2023-05-03T04:47:24;100906.48193359375;;;8.98;83.65
44531;BME280;30240;47.418;0.700;2023-05-03T04:49:48;100907.2509765625;;;9.0;83.77
44531;BME280;30240;47.418;0.700;2023-05-03T04:52:13;100906.14624023438;;;8.96;83.56
44531;BME280;30240;47.418;0.700;2023-05-03T04:54:39;100906.40869140625;;;8.97;83.59
44531;BME280;30240;47.418;0.700;2023-05-03T04:57:03;100906.02416992188;;;8.96;83.74
44531;BME280;30240;47.418;0.700;2023-05-03T04:59:28;100906.02416992188;;;8.96;83.74
44531;BME280;30240;47.418;0.700;2023-05-03T05:01:53;100914.20288085938;;;8.94;83.56
44531;BME280;30240;47.418;0.700;2023-05-03T05:04:18;100911.4990234375;;;9.05;83.57
44531;BME280;30240;47.418;0.700;2023-05-03T05:06:43;100915.1123046875;;;9.04;83.29
44531;BME280;30240;47.418;0.700;2023-05-03T05:09:22;100913.51318359375;;;9.03;83.22
44531;BME280;30240;47.418;0.700;2023-05-03T05:11:33;100913.51318359375;;;9.03;83.22
44531;BME280;30240;47.418;0.700;2023-05-03T05:13:58;100922.46704101562;;;9.07;83.21
44531;BME280;30240;47.418;0.700;2023-05-03T05:16:23;100923.3154296875;;;9.08;83.05
44531;BME280;30240;47.418;0.700;2023-05-03T05:18:48;100924.658203125;;;9.15;82.98
44531;BME280;30240;47.418;0.700;2023-05-03T05:21:13;100927.34375;;;9.01;83.06
44531;BME280;30240;47.418;0.700;2023-05-03T05:23:38;100927.34375;;;9.01;83.06
44531;BME280;30240;47.418;0.700;2023-05-03T05:26:04;100933.48388671875;;;9.08;83.05
44531;BME280;30240;47.418;0.700;2023-05-03T05:28:28;100925.72021484375;;;9.15;82.91
44531;BME280;30240;47.418;0.700;2023-05-03T05:30:53;100926.5380859375;;;9.22;82.77
44531;BME280;30240;47.418;0.700;2023-05-03T05:33:19;100929.9560546875;;;9.21;82.62
44531;BME280;30240;47.418;0.700;2023-05-03T05:35:44;100929.9560546875;;;9.21;82.62
44531;BME280;30240;47.418;0.700;2023-05-03T05:38:08;100933.39233398438;;;9.31;82.69
44531;BME280;30240;47.418;0.700;2023-05-03T05:40:33;100932.9833984375;;;9.31;82.51
44531;BME280;30240;47.418;0.700;2023-05-03T05:42:58;100926.61743164062;;;9.33;82.49
44531;BME280;30240;47.418;0.700;2023-05-03T05:45:23;100932.03125;;;9.46;82.24
44531;BME280;30240;47.418;0.700;2023-05-03T05:47:48;100932.03125;;;9.46;82.24
44531;BME280;30240;47.418;0.700;2023-05-03T05:50:13;100930.5908203125;;;9.54;82.05
44531;BME280;30240;47.418;0.700;2023-05-03T05:52:38;100929.4189453125;;;9.6;81.94
44531;BME280;30240;47.418;0.700;2023-05-03T05:55:04;100932.39135742188;;;9.7;81.82
44531;BME280;30240;47.418;0.700;2023-05-03T05:57:28;100938.17138671875;;;9.77;81.45
44531;BME280;30240;47.418;0.700;2023-05-03T05:59:53;100938.17138671875;;;9.77;81.45
44531;BME280;30240;47.418;0.700;2023-05-03T06:02:18;100942.12646484375;;;9.85;81.55
44531;BME280;30240;47.418;0.700;2023-05-03T06:04:44;100933.3740234375;;;9.99;81.16
44531;BME280;30240;47.418;0.700;2023-05-03T06:07:08;100933.09326171875;;;9.98;81.18
44531;BME280;30240;47.418;0.700;2023-05-03T06:09:33;100937.07275390625;;;10.01;80.9
44531;BME280;30240;47.418;0.700;2023-05-03T06:11:58;100937.07275390625;;;10.01;80.9
44531;BME280;30240;47.418;0.700;2023-05-03T06:14:24;100943.1884765625;;;10.16;80.84
44531;BME280;30240;47.418;0.700;2023-05-03T06:16:48;100944.08569335938;;;10.23;80.71
44531;BME280;30240;47.418;0.700;2023-05-03T06:19:14;100943.2373046875;;;10.28;80.64
44531;BME280;30240;47.418;0.700;2023-05-03T06:21:38;100946.91162109375;;;10.37;80.36
44531;BME280;30240;47.418;0.700;2023-05-03T06:24:04;100945.76416015625;;;10.51;79.96
44531;BME280;30240;47.418;0.700;2023-05-03T06:26:28;100945.76416015625;;;10.51;79.96
44531;BME280;30240;47.418;0.700;2023-05-03T06:28:53;100943.798828125;;;10.65;79.87
44531;BME280;30240;47.418;0.700;2023-05-03T06:31:18;100940.92407226562;;;10.72;79.89
44531;BME280;30240;47.418;0.700;2023-05-03T06:33:43;100945.66650390625;;;10.78;79.7
44531;BME280;30240;47.418;0.700;2023-05-03T06:36:09;100943.408203125;;;10.93;79.46
44531;BME280;30240;47.418;0.700;2023-05-03T06:38:33;100943.408203125;;;10.93;79.46
44531;BME280;30240;47.418;0.700;2023-05-03T06:40:58;100939.82543945312;;;11.24;78.96
44531;BME280;30240;47.418;0.700;2023-05-03T06:43:24;100927.71606445312;;;11.4;78.61
44531;BME280;30240;47.418;0.700;2023-05-03T06:45:50;100926.15356445312;;;11.44;78.24
44531;BME280;30240;47.418;0.700;2023-05-03T06:48:13;100917.6513671875;;;11.74;77.96
44531;BME280;30240;47.418;0.700;2023-05-03T06:50:38;100917.6513671875;;;11.74;77.96
44531;BME280;30240;47.418;0.700;2023-05-03T06:53:03;100917.91381835938;;;11.99;77.23
44531;BME280;30240;47.418;0.700;2023-05-03T06:55:28;100910.85205078125;;;11.83;77.27
44531;BME280;30240;47.418;0.700;2023-05-03T06:57:53;100892.32788085938;;;11.96;77.26
44531;BME280;30240;47.418;0.700;2023-05-03T07:00:19;100887.20092773438;;;12.1;76.6
44531;BME280;30240;47.418;0.700;2023-05-03T07:02:44;100887.20092773438;;;12.1;76.6
44531;BME280;30240;47.418;0.700;2023-05-03T07:05:09;100890.673828125;;;12.3;76.8
44531;BME280;30240;47.418;0.700;2023-05-03T07:07:34;100890.63110351562;;;12.38;76.3
44531;BME280;30240;47.418;0.700;2023-05-03T07:09:58;100883.50830078125;;;12.48;76.03
44531;BME280;30240;47.418;0.700;2023-05-03T07:12:23;100881.25;;;12.56;76.19
44531;BME280;30240;47.418;0.700;2023-05-03T07:14:48;100881.25;;;12.56;76.19
44531;BME280;30240;47.418;0.700;2023-05-03T07:17:13;100882.95288085938;;;12.93;75.78
44531;BME280;30240;47.418;0.700;2023-05-03T07:19:38;100874.71923828125;;;12.99;75.43
44531;BME280;30240;47.418;0.700;2023-05-03T07:22:03;100875.25024414062;;;12.96;75.16
44531;BME280;30240;47.418;0.700;2023-05-03T07:24:28;100872.29614257812;;;13.22;75.05
44531;BME280;30240;47.418;0.700;2023-05-03T07:26:54;100872.29614257812;;;13.22;75.05
44531;BME280;30240;47.418;0.700;2023-05-03T07:29:18;100869.91577148438;;;13.55;74.79
44531;BME280;30240;47.418;0.700;2023-05-03T07:31:43;100861.4990234375;;;13.91;73.84
44531;BME280;30240;47.418;0.700;2023-05-03T07:34:09;100858.29467773438;;;14.22;72.89
44531;BME280;30240;47.418;0.700;2023-05-03T07:36:34;100857.70263671875;;;14.33;72.45
44531;BME280;30240;47.418;0.700;2023-05-03T07:38:59;100857.70263671875;;;14.33;72.45
44531;BME280;30240;47.418;0.700;2023-05-03T07:41:24;100853.86962890625;;;14.56;70.72
44531;BME280;30240;47.418;0.700;2023-05-03T07:43:49;100846.45385742188;;;14.43;71.08
44531;BME280;30240;47.418;0.700;2023-05-03T07:46:15;100841.90063476562;;;14.6;69.87
44531;BME280;30240;47.418;0.700;2023-05-03T07:48:47;100840.90576171875;;;14.96;69.9
44531;BME280;30240;47.418;0.700;2023-05-03T07:51:06;100834.94262695312;;;15.1;68.89
44531;BME280;30240;47.418;0.700;2023-05-03T07:53:32;100834.94262695312;;;15.1;68.89
44531;BME280;30240;47.418;0.700;2023-05-03T07:55:59;100837.26806640625;;;15.57;67.84
44531;BME280;30240;47.418;0.700;2023-05-03T07:58:18;100828.55224609375;;;15.44;67.59
44531;BME280;30240;47.418;0.700;2023-05-03T08:00:50;100824.68872070312;;;15.89;66.1
44531;BME280;30240;47.418;0.700;2023-05-03T08:03:09;100829.09545898438;;;16.17;66.95
44531;BME280;30240;47.418;0.700;2023-05-03T08:05:39;100829.09545898438;;;16.17;66.95
44531;BME280;30240;47.418;0.700;2023-05-03T08:07:59;100823.4375;;;16.59;65.26
44531;BME280;30240;47.418;0.700;2023-05-03T08:10:24;100816.48559570312;;;16.48;65.01
44531;BME280;30240;47.418;0.700;2023-05-03T08:12:49;100812.18872070312;;;17.0;64.05
44531;BME280;30240;47.418;0.700;2023-05-03T08:15:14;100812.95166015625;;;17.0;63.22
44531;BME280;30240;47.418;0.700;2023-05-03T08:17:39;100812.95166015625;;;17.0;63.22
44531;BME280;30240;47.418;0.700;2023-05-03T08:20:04;100811.92016601562;;;16.99;63.36
44531;BME280;30240;47.418;0.700;2023-05-03T08:22:29;100798.66943359375;;;17.35;62.19
44531;BME280;30240;47.418;0.700;2023-05-03T08:24:53;100799.951171875;;;17.16;62.65
44531;BME280;30240;47.418;0.700;2023-05-03T08:27:19;100798.7060546875;;;17.87;61.65
44531;BME280;30240;47.418;0.700;2023-05-03T08:29:44;100798.7060546875;;;17.87;61.65
44531;BME280;30240;47.418;0.700;2023-05-03T08:32:09;100798.876953125;;;18.22;60.43
44531;BME280;30240;47.418;0.700;2023-05-03T08:34:34;100802.43530273438;;;18.74;59.64
44531;BME280;30240;47.418;0.700;2023-05-03T08:36:59;100801.220703125;;;18.34;60.4
44531;BME280;30240;47.418;0.700;2023-05-03T08:39:24;100798.828125;;;19.04;58.49
44531;BME280;30240;47.418;0.700;2023-05-03T08:41:49;100798.828125;;;19.04;58.49
44531;BME280;30240;47.418;0.700;2023-05-03T08:44:18;100793.97583007812;;;19.35;57.36
44531;BME280;30240;47.418;0.700;2023-05-03T08:46:41;100791.85791015625;;;18.95;57.93
44531;BME280;30240;47.418;0.700;2023-05-03T08:49:04;100787.88452148438;;;18.48;59.02
44531;BME280;30240;47.418;0.700;2023-05-03T08:51:30;100787.14599609375;;;18.88;58.81
44531;BME280;30240;47.418;0.700;2023-05-03T08:53:54;100787.14599609375;;;18.88;58.81
44531;BME280;30240;47.418;0.700;2023-05-03T08:56:27;100777.89306640625;;;19.7;57.02
44531;BME280;30240;47.418;0.700;2023-05-03T08:58:43;100790.71044921875;;;19.79;56.25
44531;BME280;30240;47.418;0.700;2023-05-03T09:01:09;100783.154296875;;;18.52;57.01
44531;BME280;30240;47.418;0.700;2023-05-03T09:03:35;100778.57666015625;;;19.29;56.22
44531;BME280;30240;47.418;0.700;2023-05-03T09:05:59;100778.57666015625;;;19.29;56.22
44531;BME280;30240;47.418;0.700;2023-05-03T09:08:23;100779.09545898438;;;19.25;55.72
44531;BME280;30240;47.418;0.700;2023-05-03T09:10:49;100765.29541015625;;;19.28;55.37
44531;BME280;30240;47.418;0.700;2023-05-03T09:13:14;100763.34228515625;;;19.35;56.6
44531;BME280;30240;47.418;0.700;2023-05-03T09:15:39;100755.4931640625;;;19.7;54.96
44531;BME280;30240;47.418;0.700;2023-05-03T09:18:06;100755.4931640625;;;19.7;54.96
44531;BME280;30240;47.418;0.700;2023-05-03T09:20:33;100758.0810546875;;;20.4;53.8
44531;BME280;30240;47.418;0.700;2023-05-03T09:22:54;100755.3466796875;;;20.55;53.35
44531;BME280;30240;47.418;0.700;2023-05-03T09:25:18;100746.08764648438;;;19.92;53.78
44531;BME280;30240;47.418;0.700;2023-05-03T09:27:43;100748.34594726562;;;20.46;53.22
44531;BME280;30240;47.418;0.700;2023-05-03T09:30:16;100743.12744140625;;;20.98;52.52
44531;BME280;30240;47.418;0.700;2023-05-03T09:32:47;100743.12744140625;;;20.98;52.52
44531;BME280;30240;47.418;0.700;2023-05-03T09:35:11;100745.90454101562;;;21.03;52.02
44531;BME280;30240;47.418;0.700;2023-05-03T09:37:34;100735.96801757812;;;20.77;52.46
44531;BME280;30240;47.418;0.700;2023-05-03T09:40:04;100734.28955078125;;;20.64;53.24
44531;BME280;30240;47.418;0.700;2023-05-03T09:42:15;100730.71899414062;;;20.43;52.69
44531;BME280;30240;47.418;0.700;2023-05-03T09:44:40;100730.71899414062;;;20.43;52.69
44531;BME280;30240;47.418;0.700;2023-05-03T09:47:04;100732.95288085938;;;21.27;51.77
44531;BME280;30240;47.418;0.700;2023-05-03T09:49:29;100727.294921875;;;20.54;50.27
44531;BME280;30240;47.418;0.700;2023-05-03T09:51:54;100726.97143554688;;;21.38;49.16
44531;BME280;30240;47.418;0.700;2023-05-03T09:54:19;100724.90844726562;;;21.85;49.19
44531;BME280;30240;47.418;0.700;2023-05-03T09:56:44;100724.90844726562;;;21.85;49.19
44531;BME280;30240;47.418;0.700;2023-05-03T09:59:09;100723.7548828125;;;20.82;49.63
44531;BME280;30240;47.418;0.700;2023-05-03T10:01:34;100720.39184570312;;;20.58;50.84
44531;BME280;30240;47.418;0.700;2023-05-03T10:04:00;100717.09594726562;;;20.82;49.5
44531;BME280;30240;47.418;0.700;2023-05-03T10:06:25;100707.89184570312;;;20.51;50.12
44531;BME280;30240;47.418;0.700;2023-05-03T10:08:52;100707.89184570312;;;20.51;50.12
44531;BME280;30240;47.418;0.700;2023-05-03T10:11:15;100710.71166992188;;;20.99;50.27
44531;BME280;30240;47.418;0.700;2023-05-03T10:13:39;100712.3779296875;;;21.38;49.24
44531;BME280;30240;47.418;0.700;2023-05-03T10:16:05;100702.89306640625;;;21.62;48.26
44531;BME280;30240;47.418;0.700;2023-05-03T10:18:31;100707.31811523438;;;21.97;48.69
44531;BME280;30240;47.418;0.700;2023-05-03T10:20:55;100707.31811523438;;;21.97;48.69
44531;BME280;30240;47.418;0.700;2023-05-03T10:23:19;100693.17016601562;;;21.45;49.12
44531;BME280;30240;47.418;0.700;2023-05-03T10:26:12;100695.59326171875;;;22.0;49.55
44531;BME280;30240;47.418;0.700;2023-05-03T10:28:09;100691.04614257812;;;22.54;48.65
44531;BME280;30240;47.418;0.700;2023-05-03T10:30:34;100689.111328125;;;22.69;48.22
44531;BME280;30240;47.418;0.700;2023-05-03T10:32:59;100689.111328125;;;22.69;48.22
44531;BME280;30240;47.418;0.700;2023-05-03T10:33:27;100689.111328125;;;22.69;48.22
44531;BME280;30240;47.418;0.700;2023-05-03T10:35:26;100681.91528320312;;;23.08;48.36
44531;BME280;30240;47.418;0.700;2023-05-03T10:37:48;100679.80346679688;;;22.24;48.23
44531;BME280;30240;47.418;0.700;2023-05-03T10:40:15;100677.79541015625;;;23.08;47.41
44531;BME280;30240;47.418;0.700;2023-05-03T10:42:42;100666.96166992188;;;22.61;47.88
44531;BME280;30240;47.418;0.700;2023-05-03T10:45:06;100666.96166992188;;;22.61;47.88
44531;BME280;30240;47.418;0.700;2023-05-03T10:47:29;100654.37622070312;;;22.97;47.24
44531;BME280;30240;47.418;0.700;2023-05-03T10:50:24;100653.1494140625;;;22.92;46.09
44531;BME280;30240;47.418;0.700;2023-05-03T10:52:44;100654.40673828125;;;21.81;46.73
44531;BME280;30240;47.418;0.700;2023-05-03T10:54:43;100645.20263671875;;;22.51;45.54
44531;BME280;30240;47.418;0.700;2023-05-03T10:57:09;100645.20263671875;;;22.51;45.54
44531;BME280;30240;47.418;0.700;2023-05-03T10:59:46;100629.96826171875;;;22.03;46.11
44531;BME280;30240;47.418;0.700;2023-05-03T11:01:59;100628.01513671875;;;23.14;45.22
44531;BME280;30240;47.418;0.700;2023-05-03T11:04:32;100638.1103515625;;;23.14;45.05
44531;BME280;30240;47.418;0.700;2023-05-03T11:06:48;100632.95288085938;;;22.45;44.8
44531;BME280;30240;47.418;0.700;2023-05-03T11:09:14;100629.96826171875;;;23.92;45.0
44531;BME280;30240;47.418;0.700;2023-05-03T11:11:39;100629.96826171875;;;23.92;45.0
44531;BME280;30240;47.418;0.700;2023-05-03T11:14:04;100620.19653320312;;;23.1;43.23
44531;BME280;30240;47.418;0.700;2023-05-03T11:16:29;100616.65649414062;;;23.46;44.36
44531;BME280;30240;47.418;0.700;2023-05-03T11:18:54;100607.72705078125;;;22.68;45.44
44531;BME280;30240;47.418;0.700;2023-05-03T11:21:19;100597.56469726562;;;23.52;43.92